createdAt,value
2023-03-19T00:01:16.799Z,98411.47829840877
2023-03-19T00:04:17.792Z,98406.04559472873
2023-03-19T00:07:17.558Z,98410.69923486095
2023-03-19T00:11:17.080Z,98419.17756320743
2023-03-19T00:14:16.931Z,98410.78138907668
2023-03-19T00:17:17.024Z,98411.34376432539
2023-03-19T00:21:16.681Z,98408.16920724414
2023-03-19T00:24:18.232Z,98402.02147773317
2023-03-19T00:27:16.881Z,98404.73260318371
2023-03-19T00:31:16.914Z,98404.41529928218
2023-03-19T00:34:19.413Z,98405.43118303285
2023-03-19T00:37:17.916Z,98394.44548360826
2023-03-19T00:41:17.842Z,98387.01846102522
2023-03-19T00:44:17.337Z,98384.1047359489
2023-03-19T00:47:17.142Z,98386.1714337237
2023-03-19T00:51:17.084Z,98379.0633951385
2023-03-19T00:54:17.456Z,98372.61611371631
2023-03-19T00:57:17.523Z,98370.42613081551
2023-03-19T01:01:17.925Z,98366.6635962428
2023-03-19T01:04:17.321Z,98366.33156178267
2023-03-19T01:07:17.100Z,98364.06930631126
2023-03-19T01:11:17.850Z,98359.2949683057
2023-03-19T01:14:17.838Z,98356.33145572455
2023-03-19T01:17:17.337Z,98358.13430178848
2023-03-19T01:21:16.388Z,98339.38512200644
2023-03-19T01:24:17.319Z,98340.54377362791
2023-03-19T01:27:16.732Z,98333.38973295811
2023-03-19T01:31:17.705Z,98329.79596894195
2023-03-19T01:34:17.408Z,98324.8202546881
2023-03-19T01:37:17.488Z,98316.37140335166
2023-03-19T01:41:16.993Z,98304.48063885221
2023-03-19T01:44:27.114Z,98301.49345759457
2023-03-19T01:47:25.061Z,98311.77354448281
2023-03-19T01:51:20.846Z,98313.7126761347
2023-03-19T01:54:22.027Z,98307.10377493838
2023-03-19T01:57:18.111Z,98307.98508873979
2023-03-19T02:01:17.736Z,98306.4068563412
2023-03-19T02:04:18.206Z,98312.02769045658
2023-03-19T02:07:17.702Z,98309.92348157242
2023-03-19T02:11:17.392Z,98316.36733068398
2023-03-19T02:14:16.979Z,98318.52637103328
2023-03-19T02:17:17.321Z,98322.6423202021
2023-03-19T02:21:19.649Z,98329.23848295806
2023-03-19T02:24:24.795Z,98337.76072497354
2023-03-19T02:27:17.538Z,98339.574069584
2023-03-19T02:31:17.427Z,98327.6061272875
2023-03-19T02:34:35.757Z,98326.91189846853
2023-03-19T02:37:20.657Z,98337.91423285154
2023-03-19T02:41:16.832Z,98340.11565662014
2023-03-19T02:44:20.557Z,98340.89859878433
2023-03-19T02:47:17.337Z,98344.52267115093
2023-03-19T02:51:16.278Z,98344.25109689447
2023-03-19T02:54:16.829Z,98347.01067843898
2023-03-19T02:57:16.896Z,98348.49005977399
2023-03-19T03:01:17.072Z,98345.3218866649
2023-03-19T03:04:17.569Z,98351.45827865088
2023-03-19T03:07:17.715Z,98356.38874026107
2023-03-19T03:11:16.052Z,98353.63342226796
2023-03-19T03:14:16.562Z,98358.76403176678
2023-03-19T03:17:16.891Z,98363.64418201847
2023-03-19T03:21:20.606Z,98363.400783723
2023-03-19T03:24:16.637Z,98364.803692367
2023-03-19T03:27:16.836Z,98363.65070787579
2023-03-19T03:31:16.178Z,98367.64281435181
2023-03-19T03:34:16.880Z,98374.13488623162
2023-03-19T03:37:16.524Z,98377.30399673167
2023-03-19T03:41:17.047Z,98380.47138831778
2023-03-19T03:44:17.970Z,98380.68334336812
2023-03-19T03:47:18.248Z,98383.8885973626
2023-03-19T03:51:16.708Z,98392.29599508787
2023-03-19T03:54:17.088Z,98401.27045295891
2023-03-19T03:57:17.283Z,98396.13556965017
2023-03-19T04:01:18.572Z,98395.59708253924
2023-03-19T04:04:16.837Z,98400.61917050992
2023-03-19T04:07:16.814Z,98403.00476436905
2023-03-19T04:11:16.715Z,98407.53864114847
2023-03-19T04:14:17.079Z,98412.1641548016
2023-03-19T04:17:17.442Z,98406.15667502755
2023-03-19T04:21:16.997Z,98399.74236693297
2023-03-19T04:24:17.246Z,98400.52696285951
2023-03-19T04:27:17.089Z,98403.02682075967
2023-03-19T04:31:16.934Z,98400.60556578018
2023-03-19T04:34:18.089Z,98402.85882174998
2023-03-19T04:37:18.067Z,98406.55233209542
2023-03-19T04:41:16.661Z,98404.8828274269
2023-03-19T04:44:17.516Z,98402.68035900946
2023-03-19T04:47:16.759Z,98402.49935123442
2023-03-19T04:51:17.267Z,98410.87247040508
2023-03-19T04:54:16.590Z,98408.61727725054
2023-03-19T04:57:17.076Z,98410.33759361548
2023-03-19T05:01:17.576Z,98412.97203474863
2023-03-19T05:04:18.146Z,98412.18584364494
2023-03-19T05:07:17.348Z,98410.95113970345
2023-03-19T05:11:17.009Z,98415.87547251601
2023-03-19T05:14:16.998Z,98417.11099708774
2023-03-19T05:17:16.878Z,98419.35952976842
2023-03-19T05:21:17.059Z,98420.68071255038
2023-03-19T05:24:17.305Z,98421.23379087832
2023-03-19T05:27:17.626Z,98427.3727988229
2023-03-19T05:31:17.412Z,98420.36007975298
2023-03-19T05:34:17.478Z,98419.80545608954
2023-03-19T05:37:17.819Z,98423.35670869303
2023-03-19T05:41:16.779Z,98422.7429427776
2023-03-19T05:44:17.225Z,98422.9221998276
2023-03-19T05:47:17.288Z,98427.47338332905
2023-03-19T05:51:16.497Z,98428.569516937
2023-03-19T05:54:17.250Z,98433.49988069768
2023-03-19T05:57:16.730Z,98433.76009666703
2023-03-19T06:01:16.740Z,98444.29041190761
2023-03-19T06:04:17.012Z,98441.99317700195
2023-03-19T06:07:16.659Z,98431.70088608611
2023-03-19T06:11:16.380Z,98410.24839236523
2023-03-19T06:14:16.483Z,98427.8199099791
2023-03-19T06:17:16.623Z,98435.16514939777
2023-03-19T06:21:16.975Z,98428.72855433522
2023-03-19T06:24:16.882Z,98428.41308376836
2023-03-19T06:27:16.638Z,98433.07251545087
2023-03-19T06:31:17.405Z,98434.99307234248
2023-03-19T06:34:16.997Z,98444.06249574028
2023-03-19T06:37:17.531Z,98437.39592768085
2023-03-19T06:41:16.908Z,98443.06888015216
2023-03-19T06:44:17.080Z,98446.10220117512
2023-03-19T06:47:16.880Z,98451.99933437676
2023-03-19T06:51:17.310Z,98464.83494680007
2023-03-19T06:54:17.443Z,98463.17635090162
2023-03-19T06:57:17.288Z,98468.31886164988
2023-03-19T07:01:16.979Z,98471.90026981667
2023-03-19T07:04:17.613Z,98473.8073664504
2023-03-19T07:07:16.874Z,98476.12969359368
2023-03-19T07:11:17.028Z,98484.8325049465
2023-03-19T07:14:17.361Z,98486.25088504204
2023-03-19T07:17:17.189Z,98486.69599811996
2023-03-19T07:21:16.364Z,98488.01491302063
2023-03-19T07:24:16.783Z,98494.67235005865
2023-03-19T07:27:16.902Z,98492.3905282904
2023-03-19T07:31:17.411Z,98489.84956235706
2023-03-19T07:34:16.728Z,98495.42494326463
2023-03-19T07:37:16.750Z,98489.7267169337
2023-03-19T07:41:16.252Z,98492.72792768023
2023-03-19T07:44:17.130Z,98493.72990039221
2023-03-19T07:47:28.483Z,98494.07045931517
2023-03-19T07:51:16.799Z,98496.7170799311
2023-03-19T07:54:17.163Z,98494.76249787546
2023-03-19T07:57:17.172Z,98502.9805103639
2023-03-19T08:01:16.994Z,98502.44193311584
2023-03-19T08:04:18.093Z,98504.24115172923
2023-03-19T08:07:17.411Z,98504.11284068199
2023-03-19T08:11:16.601Z,98501.4727225469
2023-03-19T08:14:20.011Z,98502.74435052346
2023-03-19T08:17:17.538Z,98501.28935464198
2023-03-19T08:21:16.772Z,98506.75511594609
2023-03-19T08:24:18.062Z,98509.78881365762
2023-03-19T08:27:17.284Z,98515.36430314985
2023-03-19T08:31:16.489Z,98516.46276274027
2023-03-19T08:34:17.570Z,98519.06949760437
2023-03-19T08:37:16.947Z,98518.83309047772
2023-03-19T08:41:16.643Z,98526.76635575884
2023-03-19T08:44:17.066Z,98528.63471151801
2023-03-19T08:47:17.432Z,98531.72713139617
2023-03-19T08:51:17.100Z,98537.31972138982
2023-03-19T08:54:18.044Z,98538.73089153026
2023-03-19T08:57:17.287Z,98540.50732849429
2023-03-19T09:01:16.241Z,98551.81241649018
2023-03-19T09:04:17.269Z,98553.41035454907
2023-03-19T09:07:16.864Z,98550.20494604633
2023-03-19T09:11:18.662Z,98547.19442088649
2023-03-19T09:14:17.301Z,98550.99650958924
2023-03-19T09:17:18.723Z,98552.25630987519
2023-03-19T09:21:16.197Z,98550.47211763714
2023-03-19T09:24:16.531Z,98556.26430034233
2023-03-19T09:27:16.529Z,98548.00950929453
2023-03-19T09:31:16.679Z,98547.3126235889
2023-03-19T09:34:16.979Z,98539.62530658605
2023-03-19T09:37:17.891Z,98541.88672399164
2023-03-19T09:41:26.191Z,98540.79686186399
2023-03-19T09:44:26.131Z,98528.14417166846
2023-03-19T09:47:26.293Z,98528.0335893105
2023-03-19T09:51:20.915Z,98515.90579486077
2023-03-19T09:54:28.984Z,98513.86182460365
2023-03-19T09:57:18.449Z,98515.84490909519
2023-03-19T10:01:25.438Z,98514.17935936748
2023-03-19T10:04:35.414Z,98512.1849886314
2023-03-19T10:07:30.129Z,98511.20049191418
2023-03-19T10:11:34.059Z,98509.24439783097
2023-03-19T10:14:42.531Z,98507.7519096759
2023-03-19T10:17:20.126Z,98502.66963100525
2023-03-19T10:21:22.567Z,98499.4770802433
2023-03-19T10:24:24.352Z,98500.90282862428
2023-03-19T10:27:20.705Z,98499.19307508225
2023-03-19T10:31:26.675Z,98488.3044643443
2023-03-19T10:34:27.698Z,98490.77664217917
2023-03-19T10:37:19.486Z,98491.31208416994
2023-03-19T10:41:29.481Z,98481.45642352167
2023-03-19T10:44:27.547Z,98480.47305216777
2023-03-19T10:47:17.991Z,98479.98938344159
2023-03-19T10:51:24.107Z,98480.22195182582
2023-03-19T10:54:22.890Z,98471.9833453563
2023-03-19T10:57:24.581Z,98474.4115820555
2023-03-19T11:01:17.157Z,98470.1591966912
2023-03-19T11:04:18.917Z,98467.61860883562
2023-03-19T11:07:20.153Z,98468.751809627
2023-03-19T11:11:24.201Z,98459.12297516786
2023-03-19T11:14:24.566Z,98454.68659964985
2023-03-19T11:17:22.185Z,98448.39676555984
2023-03-19T11:21:28.080Z,98454.01972689325
2023-03-19T11:24:17.782Z,98447.70994991889
2023-03-19T11:27:18.907Z,98442.55304997593
2023-03-19T11:31:27.807Z,98442.86636740204
2023-03-19T11:34:32.286Z,98435.76533897256
2023-03-19T11:37:30.717Z,98433.56372999278
2023-03-19T11:41:27.488Z,98430.16293894376
2023-03-19T11:44:22.636Z,98434.72528599105
2023-03-19T11:47:27.697Z,98441.86723493664
2023-03-19T11:51:22.519Z,98447.24260653104
2023-03-19T11:54:23.406Z,98455.01185999182
2023-03-19T11:57:26.075Z,98458.12669810907
2023-03-19T12:01:30.732Z,98457.7035832292
2023-03-19T12:04:35.865Z,98457.50796121362
2023-03-19T12:07:24.827Z,98452.55016248452
2023-03-19T12:11:23.149Z,98455.70632519734
2023-03-19T12:14:25.685Z,98451.3423723125
2023-03-19T12:17:34.131Z,98459.13750490063
2023-03-19T12:21:26.872Z,98458.48868089182
2023-03-19T12:24:26.965Z,98460.96913935126
2023-03-19T12:27:27.297Z,98456.52386538574
2023-03-19T12:32:03.816Z,98455.68385334361
2023-03-19T12:34:28.137Z,98454.65318449274
2023-03-19T12:37:25.618Z,98449.9671369386
2023-03-19T12:41:22.126Z,98448.25068698873
2023-03-19T12:44:21.756Z,98443.06057580597
2023-03-19T12:47:23.992Z,98445.91633261042
2023-03-19T12:51:21.256Z,98442.2532766433
2023-03-19T12:54:22.662Z,98445.86731892258
2023-03-19T12:57:26.342Z,98447.4973178346
2023-03-19T13:01:23.237Z,98443.36804599351
2023-03-19T13:04:24.765Z,98440.95226668281
2023-03-19T13:07:23.237Z,98446.05779397565
2023-03-19T13:11:25.552Z,98446.44049348834
2023-03-19T13:14:24.852Z,98442.58427190878
2023-03-19T13:17:25.532Z,98438.22838450926
2023-03-19T13:21:23.669Z,98444.12020636142
2023-03-19T13:24:24.102Z,98435.13835806526
2023-03-19T13:27:21.850Z,98435.51987211544
2023-03-19T13:31:20.155Z,98429.28549757326
2023-03-19T13:34:23.875Z,98432.41232686177
2023-03-19T13:37:20.071Z,98432.73236934171
2023-03-19T13:42:05.698Z,98432.1167248598
2023-03-19T13:44:34.080Z,98427.25053860364
2023-03-19T13:47:51.830Z,98428.08811872681
2023-03-19T13:51:25.527Z,98426.59973339354
2023-03-19T13:54:20.274Z,98426.23470912204
2023-03-19T13:57:31.924Z,98425.2818397846
2023-03-19T14:01:49.440Z,98423.99742568555
2023-03-19T14:04:23.713Z,98421.63097272922
2023-03-19T14:07:20.731Z,98424.67601349935
2023-03-19T14:11:24.241Z,98422.34640578784
2023-03-19T14:14:20.516Z,98420.2891494744
2023-03-19T14:17:23.326Z,98420.41018907135
2023-03-19T14:21:36.232Z,98411.70281764695
2023-03-19T14:24:55.928Z,98413.85411136081
2023-03-19T14:27:26.336Z,98410.07193185549
2023-03-19T14:31:22.627Z,98406.83371651337
2023-03-19T14:34:24.576Z,98398.66988327647
2023-03-19T14:37:22.840Z,98391.21294625198
2023-03-19T14:41:20.332Z,98383.58092381297
2023-03-19T14:45:40.454Z,98386.99349214748
2023-03-19T14:47:36.698Z,98381.88350616302
2023-03-19T14:51:30.930Z,98384.58400742833
2023-03-19T14:54:29.669Z,98380.63118876515
2023-03-19T14:57:19.697Z,98374.67278403569
2023-03-19T15:01:17.736Z,98369.85656448675
2023-03-19T15:04:24.282Z,98367.78514152563
2023-03-19T15:07:20.995Z,98364.59984877288
2023-03-19T15:11:33.828Z,98362.42221984742
2023-03-19T15:14:39.596Z,98364.8967196185
2023-03-19T15:17:22.766Z,98365.58245814872
2023-03-19T15:21:19.291Z,98366.90583046751
2023-03-19T15:24:17.225Z,98364.12126454012
2023-03-19T15:27:19.256Z,98363.85156895574
2023-03-19T15:31:31.771Z,98364.9491670509
2023-03-19T15:34:21.037Z,98364.30836019108
2023-03-19T15:37:18.311Z,98368.1114191826
2023-03-19T15:41:17.808Z,98361.7195100291
2023-03-19T15:44:21.808Z,98361.29238915181
2023-03-19T15:47:21.154Z,98362.41731828857
2023-03-19T15:51:16.877Z,98364.9255146772
2023-03-19T15:54:17.915Z,98366.16643254853
2023-03-19T15:57:18.118Z,98368.50132943699
2023-03-19T16:01:18.389Z,98378.51510327736
2023-03-19T16:04:23.632Z,98371.71700160198
2023-03-19T16:07:31.879Z,98368.13268059466
2023-03-19T16:11:28.022Z,98369.09705378613
2023-03-19T16:14:25.178Z,98367.6160325929
2023-03-19T16:17:17.671Z,98372.30540301278
2023-03-19T16:21:19.597Z,98385.84959764597
2023-03-19T16:24:23.904Z,98384.25509751962
2023-03-19T16:27:21.486Z,98386.71242439683
2023-03-19T16:31:21.820Z,98394.74633195973
2023-03-19T16:34:34.811Z,98396.25264064557
2023-03-19T16:37:31.143Z,98395.94510970944
2023-03-19T16:41:23.203Z,98400.66176948647
2023-03-19T16:44:19.104Z,98406.65066205419
2023-03-19T16:47:17.197Z,98412.93181674634
2023-03-19T16:51:20.861Z,98418.53142996643
2023-03-19T16:54:18.335Z,98420.07274044056
2023-03-19T16:57:18.752Z,98431.41518649786
2023-03-19T17:01:19.565Z,98429.4016861024
2023-03-19T17:04:17.898Z,98428.82096453178
2023-03-19T17:07:16.328Z,98433.02725841595
2023-03-19T17:11:22.957Z,98440.9584064257
2023-03-19T17:14:20.301Z,98442.35997462684
2023-03-19T17:17:19.036Z,98441.92621123657
2023-03-19T17:21:22.126Z,98441.07196940042
2023-03-19T17:24:22.972Z,98444.26814701632
2023-03-19T17:27:16.948Z,98442.59605098517
2023-03-19T17:31:22.874Z,98449.93317076164
2023-03-19T17:34:19.385Z,98452.28415161265
2023-03-19T17:37:16.291Z,98459.4454137257
2023-03-19T17:41:18.399Z,98458.29409763233
2023-03-19T17:44:16.653Z,98463.53071092186
2023-03-19T17:47:17.648Z,98462.8674515787
2023-03-19T17:51:17.831Z,98466.15512011925
2023-03-19T17:54:17.437Z,98469.80300952199
2023-03-19T17:57:17.782Z,98468.59184863785
2023-03-19T18:01:19.955Z,98466.62129776295
2023-03-19T18:04:19.136Z,98467.5225836106
2023-03-19T18:07:17.075Z,98470.59482944637
2023-03-19T18:11:16.593Z,98472.3713287273
2023-03-19T18:14:16.931Z,98468.68609987943
2023-03-19T18:17:17.895Z,98471.43972199406
2023-03-19T18:21:17.193Z,98478.43344461157
2023-03-19T18:24:17.199Z,98482.14131385041
2023-03-19T18:27:17.320Z,98482.95718773948
2023-03-19T18:31:18.373Z,98485.0829950573
2023-03-19T18:34:17.570Z,98486.02845255056
2023-03-19T18:37:17.748Z,98483.18967834293
2023-03-19T18:41:18.620Z,98491.06308276017
2023-03-19T18:44:18.994Z,98485.53982129232
2023-03-19T18:47:18.086Z,98487.14593257483
2023-03-19T18:51:17.272Z,98489.27520011777
2023-03-19T18:54:18.417Z,98492.1909128973
2023-03-19T18:57:53.710Z,98492.28098816579
2023-03-19T19:01:17.761Z,98493.61853242939
2023-03-19T19:04:17.367Z,98494.30971309026
2023-03-19T19:07:17.588Z,98495.29457497137
2023-03-19T19:11:20.908Z,98493.94905918949
2023-03-19T19:14:21.722Z,98492.23784100187
2023-03-19T19:17:18.882Z,98497.53602498658
2023-03-19T19:21:16.888Z,98502.10197200473
2023-03-19T19:24:18.351Z,98499.18317177138
2023-03-19T19:27:20.891Z,98499.56837308905
2023-03-19T19:31:23.373Z,98500.75236515797
2023-03-19T19:34:17.338Z,98506.6983277607
2023-03-19T19:37:17.962Z,98506.8424832455
2023-03-19T19:41:19.077Z,98502.17582446797
2023-03-19T19:44:19.114Z,98503.59266216522
2023-03-19T19:47:17.158Z,98503.18943275796
2023-03-19T19:51:19.190Z,98508.65213932686
2023-03-19T19:54:16.997Z,98509.17406300343
2023-03-19T19:57:25.146Z,98506.50602692571
2023-03-19T20:01:19.618Z,98507.9799317222
2023-03-19T20:04:16.873Z,98516.46325373084
2023-03-19T20:07:16.815Z,98517.07129011492
2023-03-19T20:11:21.614Z,98516.94124083688
2023-03-19T20:14:17.065Z,98517.5177306718
2023-03-19T20:17:18.714Z,98519.36819643658
2023-03-19T20:21:16.688Z,98517.86339345452
2023-03-19T20:24:17.138Z,98515.49697067315
2023-03-19T20:27:20.534Z,98511.02010821289
2023-03-19T20:31:24.213Z,98513.64646039328
2023-03-19T20:34:32.460Z,98511.37469545276
2023-03-19T20:37:20.166Z,98515.48812086333
2023-03-19T20:41:22.377Z,98518.77264083052
2023-03-19T20:44:24.844Z,98513.9492017097
2023-03-19T20:47:19.804Z,98513.3621743523
2023-03-19T20:51:20.411Z,98520.74828045304
2023-03-19T20:54:17.627Z,98521.29422530059
2023-03-19T20:57:21.738Z,98522.35258959042
2023-03-19T21:01:22.233Z,98529.18070615872
2023-03-19T21:04:20.431Z,98526.56254312221
2023-03-19T21:07:29.512Z,98526.98090354634
2023-03-19T21:11:21.650Z,98521.12613486599
2023-03-19T21:14:18.191Z,98521.77309911678
2023-03-19T21:17:18.523Z,98525.5985217794
2023-03-19T21:21:20.235Z,98523.9716369326
2023-03-19T21:24:20.811Z,98524.69085663845
2023-03-19T21:27:21.954Z,98522.00619733747
2023-03-19T21:31:19.545Z,98519.85076384716
2023-03-19T21:34:16.673Z,98520.37853976013
2023-03-19T21:37:18.121Z,98518.52890553846
2023-03-19T21:41:21.272Z,98508.87323047436
2023-03-19T21:44:21.246Z,98505.61545082132
2023-03-19T21:47:19.736Z,98508.14538187337
2023-03-19T21:51:16.715Z,98512.39311519222
2023-03-19T21:54:16.894Z,98506.72267370217
2023-03-19T21:57:16.496Z,98506.02081907289
2023-03-19T22:01:18.910Z,98502.31094253705
2023-03-19T22:04:16.799Z,98499.04944874148
2023-03-19T22:07:17.654Z,98502.0128035694
2023-03-19T22:11:19.257Z,98501.8396552109
2023-03-19T22:14:23.090Z,98507.86393450903
2023-03-19T22:17:17.085Z,98517.3313070019
2023-03-19T22:21:18.896Z,98514.75878237748
2023-03-19T22:24:16.723Z,98515.96142146783
2023-03-19T22:27:16.962Z,98511.58758898347
2023-03-19T22:31:16.112Z,98496.73424091478
2023-03-19T22:34:19.081Z,98490.83073985974
2023-03-19T22:37:24.840Z,98490.52491608339
2023-03-19T22:41:20.267Z,98495.17532765506
2023-03-19T22:44:23.087Z,98485.40205944587
2023-03-19T22:47:20.384Z,98485.40530208497
2023-03-19T22:51:17.944Z,98482.18382699961
2023-03-19T22:54:16.470Z,98473.02891657737
2023-03-19T22:57:16.925Z,98470.93552619197
2023-03-19T23:01:33.000Z,98475.54008085819
2023-03-19T23:04:19.609Z,98478.57050907302
2023-03-19T23:07:16.534Z,98465.88820144946
2023-03-19T23:11:17.985Z,98471.09707556329
2023-03-19T23:14:28.595Z,98471.92557203294
2023-03-19T23:17:17.565Z,98471.13866191522
2023-03-19T23:21:17.752Z,98473.42015431529
2023-03-19T23:24:17.595Z,98475.66222462586
2023-03-19T23:27:23.024Z,98476.256010289
2023-03-19T23:31:16.789Z,98476.1483718652
2023-03-19T23:34:17.491Z,98477.95041979865
2023-03-19T23:37:16.952Z,98474.88801204096
2023-03-19T23:41:21.461Z,98480.89234274256
2023-03-19T23:44:17.922Z,98475.18275502557
2023-03-19T23:47:17.155Z,98467.27718203132
2023-03-19T23:51:16.974Z,98468.31810204811
2023-03-19T23:54:27.647Z,98466.02971602028
2023-03-19T23:57:17.035Z,98464.46103546141
